Time;durP1;ratioP1;P1;durP2;ratioP2;P2;SDS_P1;SDS_P2;PMS_P1;PMS_P2;Temp;Humidity;BMP_temperature;BMP_pressure;BME280_temperature;BME280_humidity;BME280_pressure;Samples;Min_cycle;Max_cycle;Signal;HPM_P1;HPM_P2
2021/08/13 00:01:08;;;;;;;;;;;;;;;22.30;65.97;101717.44;1587151;38;152776;-53
2021/08/13 00:02:40;;;;;;;;;;;;;;;22.29;66.02;101726.16;1588772;38;152910;-53
2021/08/13 00:04:12;;;;;;;;;;;;;;;22.28;66.17;101722.50;1588116;38;154131;-53
2021/08/13 00:05:44;;;;;;;;;;;;;;;22.26;65.96;101718.34;1589000;38;152909;-53
2021/08/13 00:07:16;;;;;;;;;;;;;;;22.26;66.26;101719.13;1588277;30;153558;-53
2021/08/13 00:08:48;;;;;;;;;;;;;;;22.26;65.84;101723.97;1588154;38;152724;-53
2021/08/13 00:10:19;;;;;;;;;;;;;;;22.26;66.21;101721.97;1588055;38;153485;-53
2021/08/13 00:11:51;;;;;;;;;;;;;;;22.26;66.19;101723.97;1590365;38;153509;-53
2021/08/13 00:13:24;;;;;;;;;;;;;;;22.25;66.23;101719.47;1589313;38;154186;-52
2021/08/13 00:14:57;;;;;;;;;;;;;;;22.24;66.03;101712.16;1587499;30;154899;-53
2021/08/13 00:16:29;;;;;;;;;;;;;;;22.24;66.17;101718.63;1589176;30;153588;-52
2021/08/13 00:18:01;;;;;;;;;;;;;;;22.23;66.18;101719.75;1586964;38;153260;-52
2021/08/13 00:19:33;;;;;;;;;;;;;;;22.21;66.00;101718.41;1586907;38;154023;-52
2021/08/13 00:21:05;;;;;;;;;;;;;;;22.22;66.28;101717.22;1588448;38;153998;-53
2021/08/13 00:22:36;;;;;;;;;;;;;;;22.20;66.23;101713.91;1588413;38;153493;-53
2021/08/13 00:24:09;;;;;;;;;;;;;;;22.21;66.12;101712.75;1588101;30;153379;-53
2021/08/13 00:25:41;;;;;;;;;;;;;;;22.21;65.98;101709.94;1588730;38;154303;-53
2021/08/13 00:27:12;;;;;;;;;;;;;;;22.20;65.74;101709.09;1589264;38;153626;-53
2021/08/13 00:28:44;;;;;;;;;;;;;;;22.18;65.61;101700.94;1588848;38;153396;-53
2021/08/13 00:30:16;;;;;;;;;;;;;;;22.17;66.02;101706.88;1587377;38;153940;-52
2021/08/13 00:31:48;;;;;;;;;;;;;;;22.17;65.87;101709.69;1588416;38;154505;-53
2021/08/13 00:33:20;;;;;;;;;;;;;;;22.18;66.23;101711.38;1589881;38;153467;-52
2021/08/13 00:34:52;;;;;;;;;;;;;;;22.17;66.19;101704.91;1588322;30;153053;-52
2021/08/13 00:36:24;;;;;;;;;;;;;;;22.17;66.12;101704.06;1588744;38;152195;-52
2021/08/13 00:37:56;;;;;;;;;;;;;;;22.17;66.00;101698.44;1588636;30;152472;-52
2021/08/13 00:39:28;;;;;;;;;;;;;;;22.17;66.20;101706.88;1588305;30;152766;-53
2021/08/13 00:41:01;;;;;;;;;;;;;;;22.17;65.86;101706.88;1589518;30;152480;-53
2021/08/13 00:42:33;;;;;;;;;;;;;;;22.18;66.16;101703.75;1588528;30;152659;-53
2021/08/13 00:44:05;;;;;;;;;;;;;;;22.18;65.73;101702.94;1586458;38;152367;-54
2021/08/13 00:45:37;;;;;;;;;;;;;;;22.18;65.92;101702.94;1588222;38;151856;-52
2021/08/13 00:47:09;;;;;;;;;;;;;;;22.18;65.97;101702.94;1588525;30;152018;-52
2021/08/13 00:48:40;;;;;;;;;;;;;;;22.18;65.86;101702.94;1589452;38;152424;-52
2021/08/13 00:50:12;;;;;;;;;;;;;;;22.19;66.02;101713.06;1587304;38;153914;-53
2021/08/13 00:51:44;;;;;;;;;;;;;;;22.17;66.15;101716.16;1586201;38;152230;-53
2021/08/13 00:53:16;;;;;;;;;;;;;;;22.17;66.05;101713.34;1588167;38;152495;-53
2021/08/13 00:54:48;;;;;;;;;;;;;;;22.17;65.76;101709.69;1586467;38;152470;-52
2021/08/13 00:56:20;;;;;;;;;;;;;;;22.16;65.73;101714.50;1590499;30;152097;-53
2021/08/13 00:57:53;;;;;;;;;;;;;;;22.17;65.74;101718.13;1589265;38;153390;-54
2021/08/13 00:59:25;;;;;;;;;;;;;;;22.16;65.74;101710.84;1587560;38;153523;-53
2021/08/13 01:00:57;;;;;;;;;;;;;;;22.15;65.62;101710.00;1588580;38;153342;-53
2021/08/13 01:02:30;;;;;;;;;;;;;;;22.15;66.00;101704.38;1588531;38;152856;-53
2021/08/13 01:04:02;;;;;;;;;;;;;;;22.14;65.59;101704.66;1587499;38;153328;-53
2021/08/13 01:05:34;;;;;;;;;;;;;;;22.13;66.14;101705.81;1588124;30;153519;-53
2021/08/13 01:07:08;;;;;;;;;;;;;;;22.15;66.17;101711.97;1586740;38;152826;-52
2021/08/13 01:08:40;;;;;;;;;;;;;;;22.17;66.20;101707.72;1587241;38;154007;-53
2021/08/13 01:10:12;;;;;;;;;;;;;;;22.14;66.41;101719.59;1588537;30;153909;-52
2021/08/13 01:11:47;;;;;;;;;;;;;;;22.16;66.78;101713.66;1587150;30;152772;-52
2021/08/13 01:13:25;;;;;;;;;;;;;;;22.15;66.73;101720.44;1587337;38;153557;-52
2021/08/13 01:15:02;;;;;;;;;;;;;;;22.14;67.29;101725.22;1589012;38;153225;-52
2021/08/13 01:16:38;;;;;;;;;;;;;;;22.13;67.24;101722.69;1587038;38;153060;-53
2021/08/13 01:18:12;;;;;;;;;;;;;;;22.12;67.38;101719.03;1592076;38;153545;-52
2021/08/13 01:19:54;;;;;;;;;;;;;;;22.12;67.46;101724.66;1588845;38;153762;-53
2021/08/13 01:21:26;;;;;;;;;;;;;;;22.10;67.63;101723.31;1586873;38;153780;-54
2021/08/13 01:23:05;;;;;;;;;;;;;;;22.10;67.71;101721.31;1588593;38;153741;-52
2021/08/13 01:24:38;;;;;;;;;;;;;;;22.08;67.71;101717.97;1588740;38;154155;-52
2021/08/13 01:26:10;;;;;;;;;;;;;;;22.07;68.11;101719.13;1586383;38;153937;-53
2021/08/13 01:27:44;;;;;;;;;;;;;;;22.08;68.05;101725.56;1588902;30;153494;-52
2021/08/13 01:29:26;;;;;;;;;;;;;;;22.08;67.96;101720.78;1588920;38;154168;-53
2021/08/13 01:30:59;;;;;;;;;;;;;;;22.09;67.66;101724.44;1587113;38;154175;-53
2021/08/13 01:32:41;;;;;;;;;;;;;;;22.09;68.01;101725.28;1588553;38;154210;-52
2021/08/13 01:34:13;;;;;;;;;;;;;;;22.12;67.51;101721.84;1587965;38;154389;-52
2021/08/13 01:35:46;;;;;;;;;;;;;;;22.15;67.66;101723.25;1586024;38;153876;-52
2021/08/13 01:37:20;;;;;;;;;;;;;;;22.15;67.59;101718.44;1589416;30;154239;-53
2021/08/13 01:38:52;;;;;;;;;;;;;;;22.16;67.48;101724.94;1588771;38;154222;-53
2021/08/13 01:40:24;;;;;;;;;;;;;;;22.15;67.64;101728.88;1589396;38;154931;-52
2021/08/13 01:41:57;;;;;;;;;;;;;;;22.16;67.96;101730.56;1588577;38;152366;-53
2021/08/13 01:43:30;;;;;;;;;;;;;;;22.14;67.65;101725.22;1589182;38;152542;-52
2021/08/13 01:45:03;;;;;;;;;;;;;;;22.14;68.11;101716.78;1589058;38;152207;-52
2021/08/13 01:46:37;;;;;;;;;;;;;;;22.13;67.71;101711.44;1589029;38;152142;-53
2021/08/13 01:48:10;;;;;;;;;;;;;;;22.14;68.00;101715.94;1587162;38;151914;-53
2021/08/13 01:49:42;;;;;;;;;;;;;;;22.13;67.93;101708.63;1588578;38;151967;-52
2021/08/13 01:51:17;;;;;;;;;;;;;;;22.15;68.09;101711.97;1587106;38;152024;-52
2021/08/13 01:52:50;;;;;;;;;;;;;;;22.14;68.30;101711.16;1588720;38;152693;-52
2021/08/13 01:54:22;;;;;;;;;;;;;;;22.14;68.25;101708.31;1585498;38;152188;-53
2021/08/13 01:55:55;;;;;;;;;;;;;;;22.14;67.80;101713.97;1587642;30;152100;-52
2021/08/13 01:57:27;;;;;;;;;;;;;;;22.13;68.06;101708.63;1587810;38;152282;-53
2021/08/13 01:59:01;;;;;;;;;;;;;;;22.13;68.11;101709.47;1587746;38;152252;-53
2021/08/13 02:00:33;;;;;;;;;;;;;;;22.13;68.24;101708.63;1586737;38;153617;-52
2021/08/13 02:02:05;;;;;;;;;;;;;;;22.13;68.14;101706.66;1591149;38;152136;-53
2021/08/13 02:03:38;;;;;;;;;;;;;;;22.12;68.32;101709.78;1588261;38;153666;-52
2021/08/13 02:05:11;;;;;;;;;;;;;;;22.12;68.25;101709.78;1589015;38;152926;-52
2021/08/13 02:06:44;;;;;;;;;;;;;;;22.13;68.07;101711.44;1589369;38;153844;-53
2021/08/13 02:08:16;;;;;;;;;;;;;;;22.13;68.24;101717.06;1588685;38;153429;-53
2021/08/13 02:09:48;;;;;;;;;;;;;;;22.14;68.13;101718.75;1586454;38;153248;-53
2021/08/13 02:11:21;;;;;;;;;;;;;;;22.13;67.87;101722.69;1588656;38;152833;-52
2021/08/13 02:12:53;;;;;;;;;;;;;;;22.12;68.24;101718.22;1588214;30;153188;-52
2021/08/13 02:14:25;;;;;;;;;;;;;;;22.12;68.09;101718.22;1588876;38;153866;-52
2021/08/13 02:15:59;;;;;;;;;;;;;;;22.12;67.93;101721.84;1589073;38;153041;-53
2021/08/13 02:17:33;;;;;;;;;;;;;;;22.11;68.10;101720.19;1587164;38;153203;-52
2021/08/13 02:19:08;;;;;;;;;;;;;;;22.11;67.99;101716.53;1587264;38;153482;-53
2021/08/13 02:20:41;;;;;;;;;;;;;;;22.11;68.47;101725.81;1589129;38;153123;-53
2021/08/13 02:22:13;;;;;;;;;;;;;;;22.11;68.56;101713.72;1588552;38;153625;-53
2021/08/13 02:23:45;;;;;;;;;;;;;;;22.11;68.07;101713.72;1591335;38;153335;-52
2021/08/13 02:25:17;;;;;;;;;;;;;;;22.11;68.23;101713.72;1587159;38;153659;-53
2021/08/13 02:26:49;;;;;;;;;;;;;;;22.10;68.10;101715.69;1587882;38;154389;-53
2021/08/13 02:28:21;;;;;;;;;;;;;;;22.10;68.23;101720.50;1588827;38;154155;-53
2021/08/13 02:29:53;;;;;;;;;;;;;;;22.09;68.45;101718.81;1588260;38;153467;-53
2021/08/13 02:31:25;;;;;;;;;;;;;;;22.09;68.53;101713.19;1586725;38;153581;-52
2021/08/13 02:32:57;;;;;;;;;;;;;;;22.10;68.57;101723.31;1589499;38;153616;-52
2021/08/13 02:34:29;;;;;;;;;;;;;;;22.10;68.38;101712.03;1587726;38;153573;-53
2021/08/13 02:36:07;;;;;;;;;;;;;;;22.09;68.51;101724.44;1589886;38;154000;-52
2021/08/13 02:37:49;;;;;;;;;;;;;;;22.07;68.35;101721.94;1589543;38;153581;-53
2021/08/13 02:39:30;;;;;;;;;;;;;;;22.07;68.64;101729.53;1587268;38;154028;-52
2021/08/13 02:41:03;;;;;;;;;;;;;;;22.08;68.59;101731.19;1588043;38;153342;-52
2021/08/13 02:42:38;;;;;;;;;;;;;;;22.08;68.55;101732.03;1587661;38;154593;-53
2021/08/13 02:44:12;;;;;;;;;;;;;;;22.08;68.45;101731.19;1588442;38;154781;-52
2021/08/13 02:45:45;;;;;;;;;;;;;;;22.08;68.12;101726.41;1588136;38;153666;-51
2021/08/13 02:47:18;;;;;;;;;;;;;;;22.07;68.29;101721.09;1590881;38;153916;-53
2021/08/13 02:48:51;;;;;;;;;;;;;;;22.07;68.13;101723.91;1588778;38;152091;-53
2021/08/13 02:50:25;;;;;;;;;;;;;;;22.07;68.73;101721.94;1586863;38;151973;-52
2021/08/13 02:51:58;;;;;;;;;;;;;;;22.08;68.45;101719.94;1585863;38;151962;-53
2021/08/13 02:53:31;;;;;;;;;;;;;;;22.08;68.53;101731.19;1588081;38;152115;-52
2021/08/13 02:55:05;;;;;;;;;;;;;;;22.07;68.57;101726.72;1588597;38;152559;-52
2021/08/13 02:56:37;;;;;;;;;;;;;;;22.07;68.49;101741.63;1587421;38;152012;-53
2021/08/13 02:58:11;;;;;;;;;;;;;;;22.07;68.52;101730.38;1588183;38;151908;-52
2021/08/13 02:59:45;;;;;;;;;;;;;;;22.08;67.16;101731.19;1586967;38;152096;-54
2021/08/13 03:01:19;;;;;;;;;;;;;;;22.10;66.84;101737.38;1588524;38;152121;-53
2021/08/13 03:02:53;;;;;;;;;;;;;;;22.09;67.79;101736.53;1588642;38;152067;-52
2021/08/13 03:04:28;;;;;;;;;;;;;;;22.09;67.86;101732.88;1587665;38;152017;-52
2021/08/13 03:06:01;;;;;;;;;;;;;;;22.08;68.08;101736.81;1587306;38;152377;-53
2021/08/13 03:07:34;;;;;;;;;;;;;;;22.08;68.04;101745.25;1587499;30;152847;-52
2021/08/13 03:09:06;;;;;;;;;;;;;;;22.07;68.38;101737.97;1590107;38;152214;-52
2021/08/13 03:10:39;;;;;;;;;;;;;;;22.07;68.38;101732.34;1588055;38;153385;-53
2021/08/13 03:12:11;;;;;;;;;;;;;;;22.08;68.32;101725.56;1588989;38;153264;-52
2021/08/13 03:13:43;;;;;;;;;;;;;;;22.06;68.14;101731.50;1589486;38;153420;-57
2021/08/13 03:15:16;;;;;;;;;;;;;;;22.07;68.17;101729.53;1588484;38;153824;-53
2021/08/13 03:16:49;;;;;;;;;;;;;;;22.06;68.53;101723.06;1587748;38;152926;-53
2021/08/13 03:18:20;;;;;;;;;;;;;;;22.05;68.39;101727.00;1587948;38;152884;-52
2021/08/13 03:19:52;;;;;;;;;;;;;;;22.06;68.66;101733.50;1587814;38;152646;-53
2021/08/13 03:21:25;;;;;;;;;;;;;;;22.06;68.19;101727.84;1586225;38;152838;-53
2021/08/13 03:22:56;;;;;;;;;;;;;;;22.07;68.29;101741.63;1588272;38;152862;-52
2021/08/13 03:24:28;;;;;;;;;;;;;;;22.08;68.00;101732.03;1588863;38;152906;-52
2021/08/13 03:26:01;;;;;;;;;;;;;;;22.07;67.98;101736.00;1587711;38;154184;-52
2021/08/13 03:27:32;;;;;;;;;;;;;;;22.06;68.40;101745.59;1590045;30;152961;-53
2021/08/13 03:29:05;;;;;;;;;;;;;;;22.09;67.96;101747.78;1585696;38;154249;-52
2021/08/13 03:30:39;;;;;;;;;;;;;;;22.08;67.98;101740.47;1592101;30;153792;-52
2021/08/13 03:32:11;;;;;;;;;;;;;;;22.08;68.01;101740.47;1586203;38;153453;-52
2021/08/13 03:33:43;;;;;;;;;;;;;;;22.08;67.97;101739.63;1588802;38;153094;-53
2021/08/13 03:35:15;;;;;;;;;;;;;;;22.09;67.92;101744.13;1585993;38;153416;-53
2021/08/13 03:36:47;;;;;;;;;;;;;;;22.08;68.17;101729.22;1588092;38;154171;-52
2021/08/13 03:38:19;;;;;;;;;;;;;;;22.06;67.73;101734.31;1587421;38;153700;-52
2021/08/13 03:39:51;;;;;;;;;;;;;;;22.08;67.91;101728.38;1588789;38;153997;-52
2021/08/13 03:41:23;;;;;;;;;;;;;;;22.06;68.04;101734.31;1587733;38;153539;-52
2021/08/13 03:42:55;;;;;;;;;;;;;;;22.06;67.83;101733.50;1588782;38;153358;-53
2021/08/13 03:44:27;;;;;;;;;;;;;;;22.07;67.86;101740.81;1585947;38;153481;-52
2021/08/13 03:45:58;;;;;;;;;;;;;;;22.06;68.31;101739.97;1588534;38;153816;-52
2021/08/13 03:47:30;;;;;;;;;;;;;;;22.07;67.83;101732.34;1587500;30;154313;-52
2021/08/13 03:49:02;;;;;;;;;;;;;;;22.08;67.59;101739.63;1588112;38;154091;-53
2021/08/13 03:50:34;;;;;;;;;;;;;;;22.08;67.66;101736.81;1588038;38;153819;-52
2021/08/13 03:52:06;;;;;;;;;;;;;;;22.08;67.56;101731.19;1590112;38;154222;-52
2021/08/13 03:53:38;;;;;;;;;;;;;;;22.07;67.87;101733.19;1588452;38;152492;-52
2021/08/13 03:55:12;;;;;;;;;;;;;;;22.08;67.63;101734.84;1587468;38;152284;-53
2021/08/13 03:56:44;;;;;;;;;;;;;;;22.08;67.64;101734.84;1585645;38;152227;-57
2021/08/13 03:58:16;;;;;;;;;;;;;;;22.07;67.36;101744.47;1587622;38;151958;-53
2021/08/13 03:59:48;;;;;;;;;;;;;;;22.07;67.97;101738.81;1588632;38;153185;-53
2021/08/13 04:01:24;;;;;;;;;;;;;;;22.08;67.64;101746.09;1586310;38;152053;-52
2021/08/13 04:02:56;;;;;;;;;;;;;;;22.08;67.66;101745.25;1589846;30;152143;-53
2021/08/13 04:04:29;;;;;;;;;;;;;;;22.08;67.17;101743.28;1589408;38;152270;-53
2021/08/13 04:06:02;;;;;;;;;;;;;;;22.07;67.83;101738.81;1586171;38;152716;-52
2021/08/13 04:07:34;;;;;;;;;;;;;;;22.06;67.44;101731.50;1588711;38;152086;-52
2021/08/13 04:09:05;;;;;;;;;;;;;;;22.07;67.68;101736.00;1588195;38;152400;-52
2021/08/13 04:10:37;;;;;;;;;;;;;;;22.06;67.70;101741.94;1588152;38;152370;-52
2021/08/13 04:12:09;;;;;;;;;;;;;;;22.07;67.48;101732.34;1587670;38;152556;-53
2021/08/13 04:13:41;;;;;;;;;;;;;;;22.06;67.26;101734.31;1588694;38;152296;-53
2021/08/13 04:15:13;;;;;;;;;;;;;;;22.06;67.54;101751.22;1591408;38;152471;-52
2021/08/13 04:16:45;;;;;;;;;;;;;;;22.06;67.33;101748.41;1588798;38;152876;-52
2021/08/13 04:18:17;;;;;;;;;;;;;;;22.06;67.42;101739.13;1587076;38;152941;-52
2021/08/13 04:19:49;;;;;;;;;;;;;;;22.04;67.66;101736.59;1587832;38;152912;-52
2021/08/13 04:21:21;;;;;;;;;;;;;;;22.05;67.47;101738.28;1589455;38;153287;-52
2021/08/13 04:22:52;;;;;;;;;;;;;;;22.05;67.43;101743.91;1588583;38;152606;-53
2021/08/13 04:24:25;;;;;;;;;;;;;;;22.04;67.20;101742.22;1587608;38;153223;-52
2021/08/13 04:25:56;;;;;;;;;;;;;;;22.05;67.42;101737.44;1589112;38;152794;-53
2021/08/13 04:27:28;;;;;;;;;;;;;;;22.05;67.62;101749.53;1587457;38;152905;-53
2021/08/13 04:29:03;;;;;;;;;;;;;;;22.04;67.52;101742.22;1586898;38;153066;-53
2021/08/13 04:30:35;;;;;;;;;;;;;;;22.04;67.89;101752.63;1587152;38;152665;-52
2021/08/13 04:32:07;;;;;;;;;;;;;;;22.05;67.30;101743.91;1588258;38;154829;-53
2021/08/13 04:33:39;;;;;;;;;;;;;;;22.04;67.35;101747.84;1587608;38;153222;-52
2021/08/13 04:35:11;;;;;;;;;;;;;;;22.04;67.13;101744.19;1587368;38;152922;-53
2021/08/13 04:36:43;;;;;;;;;;;;;;;22.05;67.45;101743.06;1591274;38;153276;-52
2021/08/13 04:38:14;;;;;;;;;;;;;;;22.05;67.11;101738.28;1587821;38;153253;-53
2021/08/13 04:39:46;;;;;;;;;;;;;;;22.05;67.76;101743.91;1589350;30;154456;-53
2021/08/13 04:41:18;;;;;;;;;;;;;;;22.05;67.43;101743.06;1588964;38;154479;-52
2021/08/13 04:42:50;;;;;;;;;;;;;;;22.06;67.38;101747.56;1588464;38;154112;-56
2021/08/13 04:44:23;;;;;;;;;;;;;;;22.04;67.48;101736.59;1587059;38;156354;-53
2021/08/13 04:45:54;;;;;;;;;;;;;;;22.04;66.99;101744.19;1589098;38;154191;-53
2021/08/13 04:47:26;;;;;;;;;;;;;;;22.04;67.66;101747.84;1587642;38;153468;-53
2021/08/13 04:48:58;;;;;;;;;;;;;;;22.03;67.41;101746.16;1587908;38;154233;-52
2021/08/13 04:50:30;;;;;;;;;;;;;;;22.03;67.63;101754.59;1589185;38;153502;-53
2021/08/13 04:52:04;;;;;;;;;;;;;;;22.04;67.68;101761.06;1588784;38;153916;-52
2021/08/13 04:53:36;;;;;;;;;;;;;;;22.04;68.02;101759.09;1587069;38;153510;-52
2021/08/13 04:55:08;;;;;;;;;;;;;;;22.04;67.58;101758.25;1586310;38;153497;-53
2021/08/13 04:56:40;;;;;;;;;;;;;;;22.04;67.68;101758.25;1589449;38;154173;-53
2021/08/13 04:58:12;;;;;;;;;;;;;;;22.03;68.11;101759.44;1591075;38;153968;-52
2021/08/13 04:59:43;;;;;;;;;;;;;;;22.04;67.52;101772.34;1589623;30;151955;-53
2021/08/13 05:01:16;;;;;;;;;;;;;;;22.03;67.79;101768.69;1587010;38;151693;-53
2021/08/13 05:02:48;;;;;;;;;;;;;;;22.03;67.65;101765.88;1587239;38;152340;-52
2021/08/13 05:04:21;;;;;;;;;;;;;;;22.07;67.72;101763.31;1589567;30;151815;-53
2021/08/13 05:05:53;;;;;;;;;;;;;;;22.09;67.72;101767.50;1587194;38;152293;-53
2021/08/13 05:07:24;;;;;;;;;;;;;;;22.14;68.00;101769.41;1589123;38;151992;-53
2021/08/13 05:08:56;;;;;;;;;;;;;;;22.15;68.04;101769.13;1586313;38;152437;-53
2021/08/13 05:10:28;;;;;;;;;;;;;;;22.20;67.57;101770.19;1588958;38;152277;-53
2021/08/13 05:12:00;;;;;;;;;;;;;;;22.20;67.85;101756.97;1587547;38;151759;-53
2021/08/13 05:13:31;;;;;;;;;;;;;;;22.23;67.82;101769.59;1588661;38;152404;-52
2021/08/13 05:15:04;;;;;;;;;;;;;;;22.25;67.76;101762.53;1588039;38;151964;-53
2021/08/13 05:16:36;;;;;;;;;;;;;;;22.27;68.20;101754.59;1589102;30;152301;-53
2021/08/13 05:18:08;;;;;;;;;;;;;;;22.30;68.29;101756.00;1588695;38;151830;-55
2021/08/13 05:19:40;;;;;;;;;;;;;;;22.30;68.53;101756.84;1589218;38;152108;-53
2021/08/13 05:21:12;;;;;;;;;;;;;;;22.32;68.57;101759.34;1588983;38;152474;-53
2021/08/13 05:22:44;;;;;;;;;;;;;;;22.34;68.68;101765.53;1587777;38;154562;-53
2021/08/13 05:24:16;;;;;;;;;;;;;;;22.35;68.69;101762.38;1588443;38;153326;-53
2021/08/13 05:25:47;;;;;;;;;;;;;;;22.38;68.93;101775.88;1587675;30;153622;-52
2021/08/13 05:27:19;;;;;;;;;;;;;;;22.41;69.21;101780.06;1587538;38;153701;-52
2021/08/13 05:28:51;;;;;;;;;;;;;;;22.42;69.46;101791.03;1589198;38;153280;-52
2021/08/13 05:30:23;;;;;;;;;;;;;;;22.46;69.24;101785.63;1587022;38;153571;-52
2021/08/13 05:31:55;;;;;;;;;;;;;;;22.49;69.33;101783.03;1588904;30;153595;-52
2021/08/13 05:33:26;;;;;;;;;;;;;;;22.52;69.27;101784.44;1589417;38;153367;-53
2021/08/13 05:34:58;;;;;;;;;;;;;;;22.56;69.40;101785.50;1589023;30;153663;-52
2021/08/13 05:36:30;;;;;;;;;;;;;;;22.59;69.17;101784.88;1589656;30;153334;-53
2021/08/13 05:38:03;;;;;;;;;;;;;;;22.62;69.24;101775.84;1588727;38;151943;-53
2021/08/13 05:39:34;;;;;;;;;;;;;;;22.66;69.28;101781.72;1590087;38;152851;-53
2021/08/13 05:41:06;;;;;;;;;;;;;;;22.70;69.02;101788.44;1588917;38;151946;-53
2021/08/13 05:42:38;;;;;;;;;;;;;;;22.74;68.97;101789.50;1587930;38;153883;-52
2021/08/13 05:44:10;;;;;;;;;;;;;;;22.77;69.21;101788.91;1587269;38;153557;-53
2021/08/13 05:45:41;;;;;;;;;;;;;;;22.81;69.04;101787.16;1588934;38;153848;-52
2021/08/13 05:47:13;;;;;;;;;;;;;;;22.85;68.91;101791.06;1588614;30;153406;-52
2021/08/13 05:48:45;;;;;;;;;;;;;;;22.88;68.64;101785.66;1587705;38;154471;-52
2021/08/13 05:50:17;;;;;;;;;;;;;;;22.92;68.37;101786.72;1589151;30;154223;-52
2021/08/13 05:51:49;;;;;;;;;;;;;;;22.95;68.54;101785.25;1589322;30;153546;-53
2021/08/13 05:53:21;;;;;;;;;;;;;;;22.99;68.55;101792.78;1587647;38;153548;-52
2021/08/13 05:54:52;;;;;;;;;;;;;;;23.02;68.88;101800.66;1589415;38;153008;-53
2021/08/13 05:56:24;;;;;;;;;;;;;;;23.06;68.72;101806.53;1586877;30;154200;-52
2021/08/13 05:57:56;;;;;;;;;;;;;;;23.09;68.67;101807.88;1587954;38;153918;-53
2021/08/13 05:59:28;;;;;;;;;;;;;;;23.13;68.35;101806.13;1586997;38;154301;-53
2021/08/13 06:01:02;;;;;;;;;;;;;;;23.16;68.37;101814.00;1586463;38;153959;-52
2021/08/13 06:02:35;;;;;;;;;;;;;;;23.19;68.01;101810.56;1589270;30;153977;-52
2021/08/13 06:04:07;;;;;;;;;;;;;;;23.23;68.08;101808.78;1591263;38;152523;-53
2021/08/13 06:05:39;;;;;;;;;;;;;;;23.26;68.20;101813.84;1588237;38;152186;-53
2021/08/13 06:07:10;;;;;;;;;;;;;;;23.30;68.05;101821.38;1590841;30;152030;-53
2021/08/13 06:08:42;;;;;;;;;;;;;;;23.32;68.00;101823.88;1586645;38;151791;-52
2021/08/13 06:10:14;;;;;;;;;;;;;;;23.36;67.59;101837.06;1589007;38;152098;-52
2021/08/13 06:11:46;;;;;;;;;;;;;;;23.40;67.86;101831.63;1588332;38;152287;-53
2021/08/13 06:13:18;;;;;;;;;;;;;;;23.43;67.74;101836.69;1586461;38;151852;-52
2021/08/13 06:14:50;;;;;;;;;;;;;;;23.45;67.18;101849.34;1587465;38;152221;-52
2021/08/13 06:16:22;;;;;;;;;;;;;;;23.48;67.14;101840.25;1589213;30;152543;-52
2021/08/13 06:17:54;;;;;;;;;;;;;;;23.53;66.90;101847.00;1587726;38;153611;-53
2021/08/13 06:19:26;;;;;;;;;;;;;;;23.56;66.77;101847.22;1587418;38;152722;-53
2021/08/13 06:20:58;;;;;;;;;;;;;;;23.59;67.15;101837.28;1586401;38;152108;-52
2021/08/13 06:22:29;;;;;;;;;;;;;;;23.63;66.75;101847.66;1587229;38;152119;-52
2021/08/13 06:24:01;;;;;;;;;;;;;;;23.66;66.48;101857.50;1586649;38;152267;-52
2021/08/13 06:25:33;;;;;;;;;;;;;;;23.69;66.22;101852.06;1591521;38;151952;-53
2021/08/13 06:27:05;;;;;;;;;;;;;;;23.72;66.65;101856.25;1586860;38;153894;-52
2021/08/13 06:28:37;;;;;;;;;;;;;;;23.75;66.40;101850.00;1588862;38;153433;-53
2021/08/13 06:30:10;;;;;;;;;;;;;;;23.77;66.29;101840.06;1587821;30;154058;-53
2021/08/13 06:31:42;;;;;;;;;;;;;;;23.81;66.52;101846.78;1586717;38;153617;-52
2021/08/13 06:33:14;;;;;;;;;;;;;;;23.84;66.23;101853.78;1587672;38;154044;-53
2021/08/13 06:34:46;;;;;;;;;;;;;;;23.87;66.33;101854.00;1588662;38;153808;-53
2021/08/13 06:36:18;;;;;;;;;;;;;;;23.90;66.18;101846.91;1589089;30;153383;-53
2021/08/13 06:37:52;;;;;;;;;;;;;;;23.94;66.33;101859.25;1588966;38;153580;-52
2021/08/13 06:39:24;;;;;;;;;;;;;;;23.96;66.05;101854.13;1589408;30;153928;-52
2021/08/13 06:41:10;;;;;;;;;;;;;;;24.00;65.84;101858.00;1586937;38;153194;-53
2021/08/13 06:42:45;;;;;;;;;;;;;;;24.03;65.57;101863.03;1588241;38;153483;-53
2021/08/13 06:44:17;;;;;;;;;;;;;;;24.07;65.62;101860.44;1589225;38;152848;-53
2021/08/13 06:45:49;;;;;;;;;;;;;;;24.08;65.92;101854.47;1589455;38;153650;-52
2021/08/13 06:47:21;;;;;;;;;;;;;;;24.11;66.14;101853.88;1591012;38;153392;-53
2021/08/13 06:48:53;;;;;;;;;;;;;;;24.15;65.73;101854.06;1588938;38;153634;-53
2021/08/13 06:50:25;;;;;;;;;;;;;;;24.18;65.82;101859.97;1588673;38;154017;-52
2021/08/13 06:51:56;;;;;;;;;;;;;;;24.21;65.36;101864.16;1588734;38;154278;-52
2021/08/13 06:53:28;;;;;;;;;;;;;;;24.24;65.72;101867.19;1587714;38;154384;-53
2021/08/13 06:55:00;;;;;;;;;;;;;;;24.26;65.69;101856.41;1589250;38;153959;-53
2021/08/13 06:56:32;;;;;;;;;;;;;;;24.29;65.46;101852.13;1589853;30;154161;-53
2021/08/13 06:58:04;;;;;;;;;;;;;;;24.31;65.73;101861.97;1589023;30;154135;-52
2021/08/13 06:59:36;;;;;;;;;;;;;;;24.34;65.44;101858.53;1588686;38;154408;-53
2021/08/13 07:01:11;;;;;;;;;;;;;;;24.36;65.41;101856.22;1590078;38;154050;-53
2021/08/13 07:02:47;;;;;;;;;;;;;;;24.40;65.03;101864.06;1586343;38;153512;-53
2021/08/13 07:04:20;;;;;;;;;;;;;;;24.43;65.16;101874.75;1589039;38;153991;-53
2021/08/13 07:05:51;;;;;;;;;;;;;;;24.45;65.28;101869.59;1590777;30;153917;-53
2021/08/13 07:07:23;;;;;;;;;;;;;;;24.47;64.77;101871.00;1590657;30;153551;-53
2021/08/13 07:08:55;;;;;;;;;;;;;;;24.51;65.14;101872.03;1591065;38;154140;-53
2021/08/13 07:10:28;;;;;;;;;;;;;;;24.54;64.60;101887.50;1589056;38;151944;-53
2021/08/13 07:12:00;;;;;;;;;;;;;;;24.56;64.95;101869.09;1587944;38;152332;-52
2021/08/13 07:13:33;;;;;;;;;;;;;;;24.58;64.71;101865.94;1590253;38;152351;-54
2021/08/13 07:15:06;;;;;;;;;;;;;;;24.60;64.98;101870.16;1587214;38;152507;-53
2021/08/13 07:16:38;;;;;;;;;;;;;;;24.62;64.85;101869.84;1589009;38;151741;-53
2021/08/13 07:18:10;;;;;;;;;;;;;;;24.64;64.75;101859.06;1586291;38;152681;-54
2021/08/13 07:19:42;;;;;;;;;;;;;;;24.66;64.43;101877.38;1589423;38;152252;-52
2021/08/13 07:21:14;;;;;;;;;;;;;;;24.67;64.21;101881.03;1589405;38;152137;-52
2021/08/13 07:22:45;;;;;;;;;;;;;;;24.69;64.34;101875.91;1590029;30;152304;-52
2021/08/13 07:24:21;;;;;;;;;;;;;;;24.70;64.03;101878.44;1587540;38;152521;-53
2021/08/13 07:25:53;;;;;;;;;;;;;;;24.71;64.07;101880.09;1586831;38;154157;-52
2021/08/13 07:27:27;;;;;;;;;;;;;;;24.73;63.78;101879.78;1588036;30;152270;-52
2021/08/13 07:28:59;;;;;;;;;;;;;;;24.73;63.71;101886.28;1588726;38;152392;-53
2021/08/13 07:30:31;;;;;;;;;;;;;;;24.74;63.95;101882.28;1587576;38;152070;-53
2021/08/13 07:32:03;;;;;;;;;;;;;;;24.75;63.80;101878.31;1591094;30;152137;-55
2021/08/13 07:33:35;;;;;;;;;;;;;;;24.76;63.60;101865.84;1590418;30;152989;-52
2021/08/13 07:35:07;;;;;;;;;;;;;;;24.77;63.79;101876.00;1587928;38;153992;-53
2021/08/13 07:36:39;;;;;;;;;;;;;;;24.78;63.92;101872.03;1587694;38;153778;-53
2021/08/13 07:38:10;;;;;;;;;;;;;;;24.79;63.72;101884.19;1588360;38;153558;-52
2021/08/13 07:39:42;;;;;;;;;;;;;;;24.82;63.33;101889.19;1589003;38;152784;-52
2021/08/13 07:41:15;;;;;;;;;;;;;;;24.80;63.64;101894.34;1589366;30;153534;-53
2021/08/13 07:42:47;;;;;;;;;;;;;;;24.81;63.52;101887.50;1588934;38;153193;-53
2021/08/13 07:44:18;;;;;;;;;;;;;;;24.83;63.74;101888.06;1588392;38;153574;-53
2021/08/13 07:46:10;;;;;;;;;;;;;;;24.84;63.52;101881.25;1589476;38;154455;-52
2021/08/13 07:47:42;;;;;;;;;;;;;;;24.84;63.37;101884.06;1588052;38;153373;-53
2021/08/13 07:49:14;;;;;;;;;;;;;;;24.86;63.68;101889.41;1588739;38;152866;-54
2021/08/13 07:50:46;;;;;;;;;;;;;;;24.84;63.51;101884.06;1590175;30;153399;-53